Time;durP1;ratioP1;P1;durP2;ratioP2;P2;SDS_P1;SDS_P2;PMS_P1;PMS_P2;Temp;Humidity;BMP_temperature;BMP_pressure;BME280_temperature;BME280_humidity;BME280_pressure;Samples;Min_cycle;Max_cycle;Signal;HPM_P1;HPM_P2
2021/11/12 00:12:58;;;;;;;51.43;47.57;;;;;;;8.11;100.00;102056.97;2011129;71;32929;-73
2021/11/12 00:18:36;;;;;;;52.30;48.33;;;;;;;8.16;100.00;102037.73;2013116;71;32831;-72
2021/11/12 00:24:21;;;;;;;53.40;49.40;;;;;;;8.11;100.00;102031.22;1897239;75;33064;-73
2021/11/12 00:30:21;;;;;;;55.40;51.10;;;;;;;7.96;100.00;102012.30;2007874;71;32872;-72
2021/11/12 00:36:03;;;;;;;53.57;49.37;;;;;;;8.16;100.00;101999.52;1991497;71;32830;-73
2021/11/12 00:41:45;;;;;;;54.07;49.73;;;;;;;8.11;100.00;101991.09;2014820;71;32824;-74
2021/11/12 00:47:37;;;;;;;54.63;50.17;;;;;;;8.10;100.00;101968.11;1991473;71;32759;-72
2021/11/12 00:59:13;;;;;;;58.30;53.37;;;;;;;8.42;100.00;101949.21;2004655;71;32725;-72
2021/11/12 01:04:57;;;;;;;55.33;51.00;;;;;;;7.88;100.00;101965.64;2008250;71;33210;-73
2021/11/12 01:10:41;;;;;;;53.33;49.23;;;;;;;7.64;100.00;101965.33;1994690;71;32821;-73
2021/11/12 01:16:26;;;;;;;55.57;51.17;;;;;;;7.70;100.00;101964.39;2009350;71;33296;-72
2021/11/12 01:22:11;;;;;;;56.03;51.47;;;;;;;7.79;100.00;101967.08;2015147;71;33378;-73
2021/11/12 01:27:54;;;;;;;55.37;50.77;;;;;;;7.94;100.00;101977.14;2011295;71;32817;-73
2021/11/12 01:33:38;;;;;;;55.83;51.33;;;;;;;8.01;100.00;101970.09;2013757;71;32857;-73
2021/11/12 01:39:23;;;;;;;54.90;50.40;;;;;;;8.05;100.00;101950.53;2014770;71;33337;-71
2021/11/12 01:45:11;;;;;;;55.50;51.00;;;;;;;7.94;100.00;101939.79;1991476;71;32812;-72
2021/11/12 01:51:01;;;;;;;52.40;48.30;;;;;;;7.78;100.00;101917.86;2005633;71;32817;-73
2021/11/12 01:56:44;;;;;;;52.53;48.63;;;;;;;8.06;100.00;101915.72;2011379;71;32805;-72
2021/11/12 02:02:29;;;;;;;50.80;46.67;;;;;;;7.79;100.00;101891.86;2009559;71;32991;-73
2021/11/12 02:08:12;;;;;;;51.60;47.60;;;;;;;7.78;100.00;101887.43;2004402;71;33514;-72
2021/11/12 02:13:57;;;;;;;48.47;44.87;;;;;;;7.69;100.00;101863.98;2011752;71;33235;-73
2021/11/12 02:19:48;;;;;;;53.90;49.90;;;;;;;7.70;100.00;101838.56;2016687;70;32891;-72
2021/11/12 02:25:30;;;;;;;49.90;45.77;;;;;;;7.93;100.00;101816.91;2002156;71;32914;-71
2021/11/12 02:31:14;;;;;;;49.77;46.10;;;;;;;8.48;100.00;101808.92;1994691;71;32835;-73
2021/11/12 02:36:59;;;;;;;49.83;46.03;;;;;;;8.71;100.00;101809.36;2007426;71;32907;-73
2021/11/12 02:42:43;;;;;;;49.23;45.53;;;;;;;8.68;100.00;101802.40;2003807;71;32835;-72
2021/11/12 02:48:26;;;;;;;48.30;44.77;;;;;;;8.59;100.00;101783.13;2014845;71;32821;-72
2021/11/12 02:54:12;;;;;;;48.43;44.80;;;;;;;8.84;100.00;101768.33;2015202;71;33358;-72
2021/11/12 02:59:59;;;;;;;49.30;45.77;;;;;;;8.82;100.00;101755.26;2018395;71;32897;-72
2021/11/12 03:05:42;;;;;;;49.20;45.57;;;;;;;8.94;100.00;101736.61;2006216;71;33275;-72
2021/11/12 03:11:26;;;;;;;49.17;44.93;;;;;;;9.26;100.00;101733.22;2009510;71;32948;-73
2021/11/12 03:17:10;;;;;;;53.67;49.27;;;;;;;9.93;100.00;101743.55;2003967;71;33308;-72
2021/11/12 03:22:58;;;;;;;55.40;50.80;;;;;;;9.96;100.00;101742.50;1990935;71;33274;-72
2021/11/12 03:28:56;;;;;;;56.97;52.10;;;;;;;10.14;100.00;101736.31;2004214;71;32947;-72
2021/11/12 03:47:11;;;;;;;60.87;55.10;;;;;;;10.52;100.00;101713.12;1991581;71;33428;-73
2021/11/12 04:05:05;;;;;;;65.10;59.07;;;;;;;10.69;100.00;101680.49;2002381;71;32821;-73
2021/11/12 05:11:09;;;;;;;59.47;54.00;;;;;;;11.27;100.00;101563.52;2016714;71;32875;-72
2021/11/12 05:47:08;;;;;;;53.27;49.07;;;;;;;11.84;100.00;101520.83;2014889;71;32899;-73
2021/11/12 05:58:47;;;;;;;53.27;49.07;;;;;;;11.92;100.00;101508.30;2011097;71;33339;-73
2021/11/12 06:04:31;;;;;;;51.33;47.47;;;;;;;11.98;100.00;101491.88;2013262;71;32802;-73
2021/11/12 06:10:17;;;;;;;49.97;46.07;;;;;;;12.16;100.00;101480.15;2011786;71;32757;-73
2021/11/12 06:16:01;;;;;;;49.40;45.27;;;;;;;12.31;100.00;101487.11;2002175;71;32900;-74
2021/11/12 06:21:46;;;;;;;48.73;44.80;;;;;;;12.39;100.00;101482.34;2018458;71;32905;-73
2021/11/12 06:27:29;;;;;;;49.67;45.57;;;;;;;12.52;100.00;101478.97;2008070;71;32771;-74
2021/11/12 06:33:14;;;;;;;50.40;46.37;;;;;;;12.48;100.00;101470.07;2011659;71;33318;-73
2021/11/12 06:38:58;;;;;;;48.83;44.87;;;;;;;12.63;100.00;101486.73;2002586;71;32763;-74
2021/11/12 06:50:54;;;;;;;50.03;46.23;;;;;;;12.71;100.00;101470.25;2014866;71;33303;-73
2021/11/12 06:56:38;;;;;;;51.40;47.40;;;;;;;12.77;100.00;101466.34;2014888;71;32824;-73
2021/11/12 07:02:25;;;;;;;51.90;47.70;;;;;;;12.83;100.00;101476.92;2000581;71;32760;-73
2021/11/12 07:08:09;;;;;;;52.77;48.60;;;;;;;12.86;100.00;101470.77;2000662;71;32765;-72
2021/11/12 07:13:53;;;;;;;54.53;50.30;;;;;;;12.85;100.00;101459.89;2005534;71;33374;-72
2021/11/12 07:19:37;;;;;;;52.63;48.20;;;;;;;12.97;100.00;101438.08;2013301;71;32843;-72
2021/11/12 07:25:22;;;;;;;51.43;47.33;;;;;;;12.98;100.00;101428.59;2009917;71;32821;-72
2021/11/12 07:31:08;;;;;;;55.30;50.90;;;;;;;12.92;100.00;101440.33;2004332;71;32815;-74
2021/11/12 07:36:54;;;;;;;55.60;50.67;;;;;;;12.88;100.00;101425.88;2010049;71;32895;-73
2021/11/12 07:42:52;;;;;;;57.83;53.07;;;;;;;12.90;100.00;101413.86;2016608;71;33301;-72
2021/11/12 07:48:26;;;;;;;55.73;51.27;;;;;;;12.78;100.00;101415.05;2004366;71;33233;-74
2021/11/12 07:54:10;;;;;;;55.37;50.97;;;;;;;12.74;100.00;101406.16;2000681;71;32820;-74
2021/11/12 07:59:54;;;;;;;52.70;48.37;;;;;;;12.79;100.00;101409.72;2016704;71;33339;-72
2021/11/12 08:05:41;;;;;;;52.80;48.33;;;;;;;12.81;100.00;101402.48;2015097;71;33374;-73
2021/11/12 08:11:31;;;;;;;54.30;49.87;;;;;;;12.77;100.00;101416.16;2016491;71;32817;-72
2021/11/12 08:17:21;;;;;;;51.83;47.43;;;;;;;12.83;100.00;101418.93;2011951;71;32771;-71
2021/11/12 08:23:05;;;;;;;51.83;47.43;;;;;;;12.83;100.00;101411.41;2011641;71;33295;-72
2021/11/12 08:41:08;;;;;;;51.63;47.13;;;;;;;13.00;100.00;101388.72;2011906;71;32769;-71
2021/11/12 08:46:53;;;;;;;52.57;48.50;;;;;;;12.97;100.00;101383.70;2016762;71;32803;-80
2021/11/12 08:52:38;;;;;;;55.73;51.03;;;;;;;13.00;100.00;101388.16;2015196;71;32831;-79
2021/11/12 08:58:23;;;;;;;51.40;47.23;;;;;;;13.03;100.00;101374.19;2006240;71;33282;-72
2021/11/12 09:04:07;;;;;;;49.30;45.50;;;;;;;13.06;100.00;101382.81;2013661;71;32872;-73
2021/11/12 09:09:56;;;;;;;46.20;42.60;;;;;;;13.05;100.00;101371.38;1998792;71;33422;-73
2021/11/12 09:15:38;;;;;;;44.07;40.77;;;;;;;13.08;100.00;101359.66;2000827;71;32772;-70
2021/11/12 09:21:22;;;;;;;43.37;40.03;;;;;;;13.15;100.00;101359.35;1995072;71;33310;-70
2021/11/12 09:27:07;;;;;;;43.43;40.17;;;;;;;13.18;100.00;101360.16;2014752;71;32903;-77
2021/11/12 09:32:51;;;;;;;41.37;38.23;;;;;;;13.21;100.00;101353.46;2000877;71;33283;-77
2021/11/12 09:38:35;;;;;;;43.63;40.63;;;;;;;13.27;100.00;101353.39;2018594;71;32894;-70
2021/11/12 09:44:21;;;;;;;42.47;39.47;;;;;;;13.29;100.00;101346.98;2000634;71;32773;-71
2021/11/12 09:50:10;;;;;;;43.10;39.93;;;;;;;13.36;100.00;101319.00;2005525;71;32825;-78
2021/11/12 09:55:55;;;;;;;42.73;39.63;;;;;;;13.43;100.00;101319.52;1995142;71;32758;-72
2021/11/12 10:01:40;;;;;;;41.47;38.57;;;;;;;13.54;100.00;101309.08;2011409;71;32812;-71
2021/11/12 10:07:25;;;;;;;42.10;39.17;;;;;;;13.68;100.00;101311.45;2012939;71;32844;-78
2021/11/12 10:13:26;;;;;;;43.70;40.40;;;;;;;13.73;100.00;101310.02;2005390;71;32922;-77
2021/11/12 10:19:18;;;;;;;40.47;37.47;;;;;;;13.82;100.00;101312.41;2018540;71;33348;-72
2021/11/12 10:25:08;;;;;;;40.93;38.00;;;;;;;14.02;100.00;101314.16;2000810;71;32762;-71
2021/11/12 10:30:53;;;;;;;42.37;39.47;;;;;;;14.00;100.00;101310.81;2007807;71;32824;-72
2021/11/12 10:36:56;;;;;;;45.10;41.80;;;;;;;14.11;100.00;101296.45;2015059;71;33324;-73
2021/11/12 10:42:46;;;;;;;44.33;40.73;;;;;;;14.09;100.00;101284.73;1995243;71;32873;-72
2021/11/12 10:48:31;;;;;;;45.37;41.77;;;;;;;14.14;100.00;101276.30;2016933;71;32854;-79
2021/11/12 10:54:45;;;;;;;49.37;45.50;;;;;;;14.06;100.00;101273.33;2009634;71;32884;-78
2021/11/12 11:00:30;;;;;;;49.17;44.87;;;;;;;14.00;100.00;101287.91;2015085;71;32889;-71
2021/11/12 11:06:18;;;;;;;47.10;43.37;;;;;;;14.21;100.00;101299.66;2011160;71;32917;-77
2021/11/12 11:08:52;;;;;;;48.00;43.97;;;;;;;14.33;100.00;101301.48;1970236;72;26213;-71
2021/11/12 11:14:36;;;;;;;48.50;44.50;;;;;;;14.35;100.00;101281.61;1995544;71;32770;-71
2021/11/12 11:20:38;;;;;;;49.37;45.37;;;;;;;14.44;100.00;101265.30;2007837;71;32826;-72
2021/11/12 11:26:25;;;;;;;49.00;45.03;;;;;;;14.48;100.00;101249.59;1991488;71;32764;-79
2021/11/12 11:32:10;;;;;;;47.20;43.13;;;;;;;14.78;100.00;101230.68;2000337;71;33283;-72
2021/11/12 11:37:55;;;;;;;48.07;43.63;;;;;;;14.91;100.00;101211.16;1991601;71;33535;-78
2021/11/12 11:43:41;;;;;;;47.17;43.30;;;;;;;14.90;100.00;101196.08;1994670;71;32840;-72
2021/11/12 11:49:28;;;;;;;48.03;44.03;;;;;;;14.88;100.00;101195.00;2009627;71;33330;-78
2021/11/12 11:55:31;;;;;;;46.87;43.07;;;;;;;14.88;100.00;101180.19;2009437;71;32898;-71
2021/11/12 12:01:51;;;;;;;48.43;44.37;;;;;;;14.79;100.00;101154.88;2000562;71;32769;-78
2021/11/12 12:07:50;;;;;;;45.63;41.83;;;;;;;14.74;100.00;101138.75;2000530;71;32813;-78
2021/11/12 12:13:39;;;;;;;45.30;41.63;;;;;;;14.68;100.00;101107.80;2014549;71;32844;-72
2021/11/12 12:19:45;;;;;;;46.63;43.10;;;;;;;14.50;100.00;101124.91;1994883;71;33370;-74
2021/11/12 12:32:52;;;;;;;46.23;42.83;;;;;;;14.74;100.00;101119.17;2012840;71;33440;-75
2021/11/12 12:39:34;;;;;;;42.73;39.30;;;;;;;14.92;100.00;101102.91;2011637;71;33303;-74
2021/11/12 13:21:46;;;;;;;45.10;41.00;;;;;;;15.31;100.00;101031.06;2014596;71;30903;-73
2021/11/12 13:27:36;;;;;;;44.40;40.20;;;;;;;15.24;100.00;101018.88;2016437;71;30962;-77
2021/11/12 13:33:51;;;;;;;46.90;42.13;;;;;;;15.21;100.00;101004.11;2014864;71;32991;-78
2021/11/12 13:39:36;;;;;;;44.53;40.70;;;;;;;15.20;100.00;100989.86;2012746;71;32888;-79
2021/11/12 13:45:24;;;;;;;44.83;40.70;;;;;;;15.24;100.00;100985.86;2011740;71;32780;-76
2021/11/12 13:51:18;;;;;;;44.77;40.60;;;;;;;15.25;100.00;100991.15;2015063;71;33428;-75
2021/11/12 13:57:13;;;;;;;46.40;42.33;;;;;;;15.28;100.00;100982.69;2007882;71;32791;-75
2021/11/12 14:03:11;;;;;;;48.10;43.70;;;;;;;15.04;100.00;100985.17;2000671;71;30837;-71
2021/11/12 14:09:08;;;;;;;57.67;52.33;;;;;;;14.86;100.00;100997.28;2005666;71;32816;-70
2021/11/12 14:15:05;;;;;;;62.73;56.73;;;;;;;14.21;100.00;101009.09;2005675;71;33377;-71
2021/11/12 14:21:07;;;;;;;61.90;55.60;;;;;;;13.91;100.00;101025.78;2018235;71;33292;-70
2021/11/12 14:26:52;;;;;;;60.17;54.10;;;;;;;13.93;100.00;101036.09;2006158;71;32851;-71
2021/11/12 14:33:02;;;;;;;60.00;53.67;;;;;;;14.02;100.00;101039.03;2000107;71;32970;-69
2021/11/12 14:38:58;;;;;;;57.47;51.37;;;;;;;14.02;100.00;101032.05;2015130;71;32916;-69
2021/11/12 14:45:06;;;;;;;57.33;51.27;;;;;;;14.15;100.00;101038.27;2000214;71;33412;-69
2021/11/12 14:51:01;;;;;;;60.40;54.50;;;;;;;14.20;100.00;101031.77;2016541;71;32809;-72
2021/11/12 14:56:50;;;;;;;59.87;53.63;;;;;;;14.06;100.00;101019.97;2014583;71;32795;-73
2021/11/12 15:02:35;;;;;;;64.27;58.07;;;;;;;14.10;100.00;101031.36;2016352;71;32913;-71
2021/11/12 15:08:21;;;;;;;60.27;54.73;;;;;;;14.15;100.00;101032.67;2014513;71;33393;-69
2021/11/12 15:14:07;;;;;;;59.63;53.77;;;;;;;14.04;100.00;101028.37;2005344;71;33310;-69
2021/11/12 15:19:52;;;;;;;60.00;54.57;;;;;;;13.98;100.00;101029.60;2013123;71;32814;-72
2021/11/12 15:25:39;;;;;;;58.87;52.97;;;;;;;14.02;100.00;101023.11;2016619;71;32804;-68
2021/11/12 15:31:22;;;;;;;57.83;52.53;;;;;;;14.06;100.00;101021.92;2003831;71;33354;-73
2021/11/12 15:37:08;;;;;;;58.00;52.53;;;;;;;13.92;100.00;101021.03;2016491;71;32816;-69
2021/11/12 15:48:55;;;;;;;54.03;48.93;;;;;;;13.74;100.00;101026.88;2003790;71;33328;-73
2021/11/12 15:54:53;;;;;;;53.10;48.33;;;;;;;13.73;100.00;101021.62;2011236;71;32824;-70
2021/11/12 16:00:38;;;;;;;54.47;49.70;;;;;;;13.72;100.00;101027.77;2014873;71;33042;-70
2021/11/12 16:12:41;;;;;;;52.40;47.70;;;;;;;13.74;100.00;101026.05;2012913;71;32805;-74
2021/11/12 16:18:40;;;;;;;54.53;50.27;;;;;;;13.69;100.00;101029.19;2011660;71;32771;-69
2021/11/12 16:24:43;;;;;;;55.57;51.17;;;;;;;13.63;100.00;101040.17;2048777;69;32762;-73
2021/11/12 16:30:28;;;;;;;56.40;51.67;;;;;;;13.50;100.00;101035.34;2011030;70;32888;-72
2021/11/12 16:36:10;;;;;;;55.53;51.10;;;;;;;13.34;100.00;101032.50;1995200;71;32770;-72
2021/11/12 16:42:00;;;;;;;51.30;47.23;;;;;;;13.26;100.00;101041.53;2018596;71;32858;-71
2021/11/12 16:48:01;;;;;;;53.77;49.57;;;;;;;13.26;100.00;101033.16;1995588;71;33253;-72
2021/11/12 16:54:01;;;;;;;48.43;44.00;;;;;;;13.34;100.00;101035.28;1991845;71;32845;-69
2021/11/12 16:59:49;;;;;;;50.53;46.40;;;;;;;13.33;100.00;101043.37;2016789;71;32838;-71
2021/11/12 17:05:36;;;;;;;52.33;48.40;;;;;;;13.34;100.00;101035.84;1997110;70;32762;-73
2021/11/12 17:11:26;;;;;;;49.27;45.10;;;;;;;13.35;100.00;101029.95;2005677;71;33337;-71
2021/11/12 17:47:54;;;;;;;46.83;43.00;;;;;;;13.19;100.00;101046.63;2015243;71;33306;-71
2021/11/12 18:05:45;;;;;;;49.10;44.57;;;;;;;13.04;100.00;101067.14;2000808;71;32764;-71
2021/11/12 18:11:57;;;;;;;48.27;44.23;;;;;;;13.04;100.00;101071.33;2006334;71;33294;-68
2021/11/12 21:46:32;;;;;;;50.87;46.90;;;;;;;12.69;100.00;101109.33;2001614;71;33007;-71
2021/11/12 21:52:16;;;;;;;47.30;43.30;;;;;;;12.55;100.00;101091.05;2019071;71;32832;-71
2021/11/12 21:58:01;;;;;;;48.40;44.60;;;;;;;12.55;100.00;101111.95;1998809;71;32819;-72
2021/11/12 22:03:46;;;;;;;46.63;42.87;;;;;;;12.49;100.00;101132.64;2008955;71;33309;-69
2021/11/12 22:09:33;;;;;;;50.37;46.30;;;;;;;12.54;100.00;101128.39;2019219;71;32820;-70
2021/11/12 22:15:16;;;;;;;51.63;47.43;;;;;;;12.44;100.00;101120.14;2015398;71;33333;-70
2021/11/12 22:21:01;;;;;;;51.13;46.87;;;;;;;12.39;100.00;101118.78;2014899;71;32902;-70
2021/11/12 22:26:49;;;;;;;52.40;48.30;;;;;;;12.26;100.00;101118.05;2016753;71;32816;-67
2021/11/12 22:32:32;;;;;;;50.07;46.40;;;;;;;12.25;100.00;101115.81;2006404;71;32762;-73
2021/11/12 22:38:17;;;;;;;52.23;48.00;;;;;;;12.26;100.00;101123.61;2016726;71;32901;-68
2021/11/12 22:44:02;;;;;;;48.97;45.10;;;;;;;12.27;100.00;101128.91;2008242;71;32777;-71
2021/11/12 22:49:46;;;;;;;49.30;45.27;;;;;;;12.41;100.00;101136.61;2008110;71;32770;-68
2021/11/12 22:55:31;;;;;;;48.37;44.57;;;;;;;12.51;100.00;101144.87;2006430;71;32896;-74
2021/11/12 23:01:18;;;;;;;50.77;47.23;;;;;;;12.60;100.00;101159.84;2015438;71;32971;-71
2021/11/12 23:07:02;;;;;;;48.33;44.60;;;;;;;12.57;100.00;101152.08;2016797;71;32937;-68
2021/11/12 23:12:47;;;;;;;48.83;44.87;;;;;;;12.60;100.00;101166.25;1998843;71;32999;-68
2021/11/12 23:18:33;;;;;;;49.53;45.53;;;;;;;12.57;100.00;101169.63;2015416;71;32839;-68
2021/11/12 23:24:18;;;;;;;48.13;44.47;;;;;;;12.62;100.00;101159.81;1963431;72;32895;-69
2021/11/12 23:30:02;;;;;;;47.43;43.83;;;;;;;12.61;100.00;101157.34;2006080;71;32829;-70
2021/11/12 23:35:46;;;;;;;47.10;43.20;;;;;;;12.62;100.00;101168.17;2013195;71;32843;-70
2021/11/12 23:41:31;;;;;;;47.60;43.80;;;;;;;12.67;100.00;101175.66;2009604;71;32843;-67
2021/11/12 23:47:14;;;;;;;45.87;42.37;;;;;;;12.75;100.00;101183.39;2009643;71;32841;-70
2021/11/12 23:53:01;;;;;;;48.10;44.63;;;;;;;12.71;100.00;101186.50;2015469;71;32920;-70
2021/11/12 23:58:46;;;;;;;46.27;43.07;;;;;;;12.64;100.00;101188.23;1991664;71;33275;-68
